Date,TemperatureHighF,TemperatureAvgF,TemperatureLowF,DewpointHighF,DewpointAvgF,DewpointLowF,HumidityHigh,HumidityAvg,HumidityLow,PressureMaxIn,PressureMinIn,WindSpeedMaxMPH,WindSpeedAvgMPH,GustSpeedMaxMPH,PrecipitationSumIn
2013-1-1,34.5,30.4,27.0,29.2,24.1,17.6,86,77,67,30.24,30.09,5,0,6,0.00
2013-1-2,35.6,29.3,26.1,30.4,23.0,18.0,87,77,61,30.09,29.94,5,0,5,0.00
2013-1-3,35.6,30.2,25.3,29.8,22.8,14.9,85,74,43,29.94,29.83,4,0,4,0.08
2013-1-4,45.3,38.5,33.8,43.7,36.2,29.5,94,91,84,30.06,29.91,4,0,4,0.16
2013-1-5,41.9,38.9,37.4,39.0,35.7,30.2,94,88,66,29.94,29.85,4,0,4,0.12
2013-1-6,45.1,40.8,38.1,40.9,36.7,34.9,88,85,78,29.94,29.74,0,0,2,0.24
2013-1-7,48.6,44.8,39.9,47.0,41.6,35.5,96,89,75,29.91,29.59,6,0,8,0.39
2013-1-8,49.5,45.6,41.5,48.1,42.7,36.8,95,90,76,29.91,29.50,4,0,8,0.47
2013-1-9,48.6,39.7,34.0,46.9,35.6,26.1,95,85,69,29.71,29.44,4,0,8,0.94
2013-1-10,38.1,35.5,32.4,33.4,29.7,25.1,87,79,60,29.85,29.71,2,0,3,0.12
2013-1-11,33.4,30.5,25.5,29.2,22.8,17.1,85,73,66,30.06,29.85,0,0,0,0.00
2013-1-12,32.2,26.1,22.6,23.7,16.9,12.8,72,68,62,30.18,30.06,0,0,0,0.00
2013-1-13,33.1,25.7,19.4,22.6,15.4,7.2,72,65,57,30.24,30.18,0,0,0,0.00
2013-1-14,35.4,31.9,28.8,25.4,22.7,17.0,74,69,50,30.30,30.21,0,0,0,0.00
2013-1-15,36.9,32.2,28.6,27.8,24.7,21.5,80,74,54,30.42,30.30,4,0,4,0.00
2013-1-16,35.4,29.5,24.6,28.5,22.0,15.1,82,73,59,30.42,30.24,3,0,5,0.00
2013-1-17,35.1,29.9,26.1,29.0,23.2,18.0,82,76,69,30.27,30.03,4,0,4,0.00
2013-1-18,34.7,30.0,25.2,28.5,23.2,15.6,85,76,66,30.09,30.00,5,0,6,0.04
2013-1-19,33.6,31.4,29.7,27.1,24.4,21.8,82,75,67,30.12,30.06,3,0,4,0.00
2013-1-20,34.3,31.0,28.2,26.8,24.0,20.0,81,75,70,30.15,30.00,4,0,4,0.00
2013-1-21,34.0,29.6,25.0,26.5,21.5,14.9,80,72,65,30.03,29.88,5,0,5,0.00
2013-1-22,36.3,30.5,23.7,29.0,22.6,14.0,83,72,65,29.88,29.65,0,0,0,0.00
2013-1-23,40.5,36.6,33.6,36.6,32.0,28.7,89,83,74,29.88,29.59,3,0,5,0.20
2013-1-24,43.3,37.3,31.8,38.8,32.9,27.3,89,84,74,29.97,29.80,0,0,0,0.12
2013-1-25,48.9,42.8,38.8,44.6,38.3,34.4,88,84,75,29.83,29.68,0,0,0,0.24
2013-1-26,46.4,40.5,36.3,38.0,32.7,24.9,88,75,44,29.80,29.65,5,0,5,0.08
2013-1-27,41.5,39.4,38.3,36.1,33.6,29.0,85,80,65,29.83,29.74,5,0,5,0.47
2013-1-28,41.5,39.9,37.9,37.4,35.6,33.5,87,84,77,29.85,29.77,3,0,4,0.79
2013-1-29,47.1,43.7,40.5,43.2,40.0,36.9,88,87,83,30.12,29.85,3,0,8,0.79
2013-1-30,48.9,46.5,44.1,46.8,43.5,40.7,94,89,84,30.15,30.09,3,0,4,0.47
2013-1-31,48.6,46.9,45.9,45.2,42.7,40.3,90,85,76,30.15,30.06,0,0,3,0.35
2013-2-1,48.4,44.9,38.8,43.2,40.5,36.2,96,85,65,30.15,30.09,6,0,6,0.08
2013-2-2,43.3,40.0,35.1,38.7,34.0,28.6,95,79,61,30.12,30.00,4,0,6,0.04
2013-2-3,47.3,41.5,34.0,41.4,35.7,27.2,86,80,55,30.06,29.94,3,0,4,0.12
2013-2-4,49.6,45.1,42.6,42.3,38.6,31.1,87,79,54,29.97,29.62,0,0,3,0.00
2013-2-5,49.6,44.8,42.8,44.0,38.9,29.1,87,80,47,29.71,29.59,4,0,5,0.35
2013-2-6,50.4,44.0,41.2,41.3,37.2,28.5,86,77,44,29.83,29.56,3,0,6,0.20
2013-2-7,47.7,40.5,31.1,39.1,29.6,19.1,88,67,35,29.94,29.56,8,0,8,0.08
2013-2-8,43.3,36.2,29.7,30.9,25.4,20.8,73,65,46,30.06,29.94,2,0,4,0.00
2013-2-9,45.0,40.3,37.0,35.2,32.2,28.9,82,73,55,30.09,30.00,0,0,0,0.04
2013-2-10,45.1,40.0,35.2,35.8,29.2,20.9,84,67,40,30.12,30.06,4,0,6,0.00
2013-2-11,48.2,42.1,37.0,33.4,28.5,21.7,77,60,35,30.12,30.06,4,0,4,0.00
2013-2-12,48.2,45.6,42.4,43.1,39.7,33.4,85,80,61,30.15,30.06,6,0,13,0.08
2013-2-13,47.1,45.0,42.4,40.9,36.3,28.1,82,72,52,30.24,30.06,4,0,13,0.08
2013-2-14,50.0,45.3,41.5,39.8,37.0,29.1,83,73,46,30.30,30.24,0,0,4,0.04
2013-2-15,51.6,42.9,37.0,36.2,33.3,28.6,84,70,42,30.30,29.94,6,0,6,0.00
2013-2-16,51.4,43.3,34.9,41.1,29.3,21.0,88,61,32,29.97,29.88,8,1,9,0.00
2013-2-17,47.3,42.0,39.2,29.2,22.9,17.7,67,47,31,30.00,29.85,4,0,5,0.00
2013-2-18,47.3,39.8,34.2,31.8,25.4,18.8,77,58,33,29.85,29.50,3,0,4,0.04
2013-2-19,48.9,38.3,32.4,30.8,23.4,18.0,79,57,30,29.77,29.47,5,0,6,0.00
2013-2-20,44.2,37.2,30.6,31.1,25.7,20.1,77,64,40,29.80,29.74,4,0,5,0.04
2013-2-21,41.9,39.8,35.8,35.8,33.1,29.0,85,77,65,29.83,29.77,6,0,6,0.16
2013-2-22,44.2,41.0,37.8,37.9,32.8,23.7,85,73,56,29.83,29.47,8,0,10,0.43
2013-2-23,47.3,41.0,37.9,33.5,28.8,22.4,77,63,38,30.12,29.68,4,0,5,0.04
2013-2-24,46.6,42.0,38.3,33.0,29.1,21.4,79,62,38,30.15,29.71,5,0,7,0.04
2013-2-25,50.4,42.5,40.1,36.6,25.5,15.3,83,53,26,30.06,29.68,9,1,13,0.16
2013-2-26,48.9,42.6,38.3,28.8,21.9,15.2,65,45,27,30.09,29.94,5,0,6,0.00
2013-2-27,50.5,43.9,38.1,39.1,32.3,23.5,83,66,36,30.06,29.94,5,0,5,0.31
2013-2-28,50.0,46.1,42.1,45.9,41.4,37.3,87,84,80,30.09,29.91,0,0,0,0.39
2013-3-1,56.5,51.9,48.0,51.5,45.6,33.6,93,80,45,30.12,30.03,5,0,8,0.20
2013-3-2,56.8,47.1,37.6,45.5,36.9,28.4,86,70,36,30.03,29.83,6,0,7,0.43
2013-3-3,46.9,38.9,30.6,35.1,27.1,20.2,81,64,37,30.06,29.94,5,0,5,0.04
2013-3-4,52.9,38.1,27.9,24.4,17.6,9.6,70,47,23,30.06,29.68,8,1,8,0.00
2013-3-5,52.5,43.0,35.2,26.1,20.8,13.0,54,42,27,29.68,29.47,6,0,9,0.00
2013-3-6,46.2,41.5,39.2,33.5,29.2,24.0,77,62,47,29.65,29.32,6,0,8,0.63
2013-3-7,51.3,42.7,34.7,40.4,33.0,26.3,84,70,41,29.83,29.65,0,0,4,0.31
2013-3-8,52.9,39.4,31.3,32.5,26.6,23.3,77,62,32,29.97,29.83,4,0,8,0.00
2013-3-9,56.5,39.8,29.5,32.6,21.6,17.7,81,51,25,30.24,29.97,6,0,6,0.00
2013-3-10,46.8,39.9,32.4,35.0,30.3,21.4,77,69,58,30.27,30.18,0,0,0,0.04
2013-3-11,53.1,45.0,38.7,39.7,33.6,25.4,81,67,36,30.18,29.91,3,0,4,0.12
2013-3-12,52.0,49.7,45.7,47.8,41.9,31.4,90,76,48,29.91,29.85,4,0,8,0.04
2013-3-13,54.1,51.0,48.7,48.5,44.9,41.2,87,80,64,29.97,29.85,4,0,5,0.28
2013-3-14,56.8,50.6,47.8,48.8,42.6,29.3,88,75,42,29.91,29.77,4,0,8,0.04
2013-3-15,59.4,52.0,48.0,48.7,40.6,31.3,87,68,35,29.97,29.91,5,0,6,0.00
2013-3-16,50.2,46.3,39.7,40.6,31.7,19.9,78,58,38,29.91,29.68,8,0,9,0.16
2013-3-17,49.8,41.9,39.0,25.5,20.4,15.7,56,43,28,29.97,29.77,8,1,9,0.00
2013-3-18,54.5,42.7,33.8,30.8,21.0,15.2,61,43,23,30.00,29.91,8,0,8,0.04
2013-3-19,56.1,40.9,31.5,36.2,24.0,11.5,79,55,17,29.97,29.35,9,0,9,0.24
2013-3-20,50.0,44.8,39.0,45.6,31.7,17.1,90,63,37,29.80,29.18,9,1,11,0.63
2013-3-21,49.1,38.6,33.4,28.5,21.3,14.2,77,52,29,29.97,29.80,6,0,8,0.24
2013-3-22,48.0,36.5,30.2,30.2,24.0,18.5,78,62,34,30.12,29.97,4,0,5,0.28
2013-3-23,52.0,37.4,29.8,25.9,18.8,13.4,68,50,24,30.15,30.03,4,0,6,0.00
2013-3-24,55.8,39.0,28.4,24.1,19.0,13.5,65,47,20,30.06,29.85,5,0,6,0.00
2013-3-25,64.4,45.9,30.7,25.7,18.9,14.8,59,37,15,29.88,29.68,6,0,6,0.00
2013-3-26,63.5,50.4,41.7,28.6,24.3,19.6,54,38,21,29.77,29.71,5,0,6,0.00
2013-3-27,58.6,48.9,41.0,37.2,29.5,24.6,70,48,28,29.74,29.68,6,0,6,0.00
2013-3-28,63.5,49.1,40.1,41.9,33.4,23.9,78,58,25,29.91,29.74,5,0,8,0.00
2013-3-29,66.2,50.8,39.0,42.3,30.7,23.2,80,51,23,30.00,29.91,5,0,6,0.04
2013-3-30,69.4,52.0,37.9,34.9,27.7,22.6,77,43,20,30.00,29.83,8,1,9,0.00
2013-3-31,72.5,54.3,39.0,38.0,29.1,21.9,79,42,16,29.83,29.65,6,0,8,0.00
2013-4-1,64.0,51.1,40.6,39.1,32.1,27.7,74,50,26,29.91,29.74,6,0,6,0.00
2013-4-2,55.0,51.2,48.4,39.9,34.4,30.7,68,53,40,29.97,29.88,4,0,4,0.00
2013-4-3,65.1,52.1,41.4,41.2,31.7,24.1,83,50,23,29.94,29.71,5,0,5,0.00
2013-4-4,58.3,52.0,47.5,49.0,40.2,29.9,84,65,47,29.71,29.41,5,0,5,0.16
2013-4-5,55.6,51.6,48.0,47.2,44.5,36.7,85,77,54,29.65,29.50,6,0,6,1.61
2013-4-6,51.3,47.3,43.7,44.0,38.4,30.9,84,71,49,29.71,29.47,4,0,5,0.71
2013-4-7,45.9,42.4,40.3,38.4,34.3,26.6,85,73,57,29.65,29.23,6,0,6,1.34
2013-4-8,53.2,46.3,41.0,39.6,36.2,28.1,82,69,40,30.03,29.65,4,0,4,0.12
2013-4-9,55.4,48.9,42.3,39.9,34.1,22.8,81,59,29,30.09,29.94,3,0,4,0.00
2013-4-10,57.6,50.6,46.8,47.3,36.1,24.0,84,60,29,30.03,29.71,6,0,10,0.35
2013-4-11,51.6,46.2,41.5,35.9,32.6,27.1,69,59,40,30.06,29.94,5,0,6,0.20
2013-4-12,48.6,43.2,38.3,38.8,31.4,22.8,81,64,37,29.94,29.47,10,0,10,0.31
2013-4-13,44.6,40.1,37.2,34.9,28.7,22.6,80,64,48,29.77,29.53,5,0,8,0.43
2013-4-14,56.7,43.2,36.9,36.0,29.0,19.0,81,60,25,29.80,29.68,5,0,6,0.31
2013-4-15,57.2,43.9,35.6,34.7,28.8,20.0,77,58,26,29.94,29.71,5,0,7,0.12
2013-4-16,55.0,41.8,32.4,37.4,26.9,21.2,78,57,29,30.15,29.94,4,0,6,0.04
2013-4-17,62.6,46.9,33.1,35.4,23.4,13.7,77,45,17,30.21,30.15,6,0,7,0.00
2013-4-18,52.2,47.2,42.4,43.0,30.4,22.7,81,53,36,30.21,30.00,4,0,5,0.24
2013-4-19,55.6,50.7,48.4,46.3,43.1,38.4,85,76,53,30.00,29.83,5,0,6,1.18
2013-4-20,55.0,48.8,46.4,42.0,39.5,32.0,81,71,43,30.03,29.97,4,0,5,0.08
2013-4-21,51.6,46.8,41.0,38.5,34.6,27.6,76,63,46,30.12,29.97,4,0,6,0.20
2013-4-22,63.5,46.6,32.9,37.7,25.1,13.8,84,49,17,30.27,30.12,5,0,6,0.00
2013-4-23,65.5,47.6,32.0,32.3,21.3,13.5,74,40,16,30.18,29.97,8,0,8,0.00
2013-4-24,71.6,64.1,44.1,26.9,20.4,13.8,39,20,14,30.03,29.83,6,1,7,0.00
2013-4-25,73.9,54.3,36.7,32.7,24.1,18.7,67,35,14,29.91,29.80,5,0,6,0.00
2013-4-26,72.9,55.9,40.8,36.2,28.2,20.1,67,38,16,30.00,29.91,6,0,6,0.00
2013-4-27,53.4,51.6,48.9,41.1,33.0,22.5,67,50,31,30.00,29.91,6,0,6,0.04
2013-4-28,61.2,52.5,47.7,43.1,31.8,20.1,80,49,24,29.97,29.74,8,1,10,0.04
2013-4-29,54.3,45.6,39.6,42.9,33.9,26.7,80,64,35,29.94,29.68,5,0,6,0.63
2013-4-30,57.6,44.4,35.4,34.3,24.9,11.8,78,51,20,30.21,29.94,6,0,7,0.08
2013-5-1,67.1,48.0,30.7,28.8,20.5,13.2,74,39,15,30.33,30.21,6,0,8,0.00
2013-5-2,71.4,53.9,37.6,32.5,24.2,18.4,69,35,17,30.30,30.09,7,1,8,0.00
2013-5-3,72.3,56.2,39.9,31.7,26.2,19.5,61,34,17,30.15,29.97,8,1,9,0.00
2013-5-4,80.4,60.2,41.9,40.4,28.5,18.8,82,36,13,29.97,29.74,6,1,10,0.00
2013-5-5,85.1,63.7,46.0,32.9,28.7,19.9,59,30,13,29.74,29.53,6,0,10,0.00
2013-5-6,89.1,65.7,45.7,35.4,28.2,19.6,59,28,12,29.62,29.50,6,0,6,0.00
2013-5-7,75.9,59.9,48.7,38.0,32.3,26.9,60,37,18,29.77,29.59,6,0,6,0.00
2013-5-8,69.6,56.5,49.8,41.3,35.4,29.7,65,47,24,29.91,29.77,4,0,4,0.00
2013-5-9,76.3,58.5,46.0,43.1,36.3,29.9,72,47,20,29.97,29.85,5,0,6,0.00
2013-5-10,82.8,63.6,46.8,48.5,36.0,28.2,83,42,16,29.97,29.85,5,0,6,0.00
2013-5-11,84.2,66.9,53.8,43.4,34.6,25.3,66,35,13,29.94,29.74,5,0,6,0.00
2013-5-12,73.6,63.5,58.8,54.1,44.4,32.3,77,52,22,29.85,29.77,4,0,5,0.31
2013-5-13,66.7,56.0,44.6,51.1,43.3,29.8,80,64,35,29.94,29.68,6,0,8,0.43
2013-5-14,68.2,53.1,42.3,40.7,29.0,15.8,77,46,15,30.00,29.85,6,0,7,0.00
2013-5-15,68.7,52.6,40.6,43.2,32.1,22.9,72,49,22,29.88,29.77,8,0,8,0.08
2013-5-16,70.7,59.7,52.0,47.8,38.2,26.1,79,50,20,29.80,29.62,4,0,5,0.00
2013-5-17,62.1,55.9,52.2,46.0,38.3,27.4,75,53,30,29.83,29.74,5,0,5,0.12
2013-5-18,62.4,55.3,51.3,39.8,33.7,27.0,61,45,27,30.03,29.83,4,0,4,0.00
2013-5-19,63.5,56.0,48.0,41.5,35.0,29.1,67,47,29,30.15,30.03,5,0,6,0.00
2013-5-20,71.6,56.5,45.5,40.9,33.3,25.6,70,45,22,30.12,29.65,5,0,6,0.00
2013-5-21,56.5,51.1,46.6,42.2,33.9,25.5,70,52,34,29.65,29.53,5,0,8,0.31
2013-5-22,54.5,46.4,42.1,37.7,34.8,30.2,72,64,41,29.71,29.62,2,0,5,0.71
2013-5-23,60.1,49.5,42.4,41.1,36.8,25.9,77,63,27,29.77,29.68,4,0,8,0.24
2013-5-24,63.5,52.4,45.7,43.5,37.0,25.9,81,59,27,29.83,29.71,5,0,6,0.04
2013-5-25,66.4,55.5,48.2,44.0,34.1,24.6,76,49,23,29.83,29.74,6,0,6,0.00
2013-5-26,65.8,55.0,47.7,46.2,38.7,30.5,73,56,28,29.74,29.68,3,0,5,0.24
2013-5-27,61.3,55.1,48.4,47.8,44.7,40.3,79,68,49,29.74,29.47,0,0,3,0.51
2013-5-28,63.0,55.4,51.8,47.8,43.1,32.7,80,65,35,29.65,29.53,6,0,6,0.08
2013-5-29,59.9,53.7,49.6,44.6,40.4,30.0,79,62,36,29.74,29.44,4,0,6,0.12
2013-5-30,62.2,53.6,47.5,43.3,36.0,26.0,75,54,27,30.00,29.74,6,0,6,0.04
2013-5-31,70.2,56.2,48.0,44.3,34.1,26.0,76,48,22,30.09,30.00,6,0,6,0.00
2013-6-1,75.6,60.1,47.1,38.9,32.1,23.2,66,39,16,30.00,29.80,5,0,6,0.00
2013-6-2,71.8,60.1,50.5,41.9,32.0,26.0,62,36,22,29.85,29.80,6,0,8,0.00
2013-6-3,77.0,59.1,45.0,42.0,33.9,26.0,71,43,18,29.88,29.80,6,0,6,0.00
2013-6-4,83.3,64.3,47.1,45.4,34.3,23.4,78,38,14,29.88,29.77,8,0,9,0.00
2013-6-5,82.8,66.3,50.5,41.5,34.5,28.2,62,33,16,29.85,29.77,6,0,8,0.00
2013-6-6,84.4,66.2,51.3,45.9,34.3,25.0,70,34,16,29.83,29.74,5,0,6,0.00
2013-6-7,72.9,61.0,52.7,38.6,31.2,23.1,54,34,16,29.88,29.80,6,0,6,0.00
2013-6-8,72.9,60.5,53.8,36.0,31.3,28.5,44,34,22,29.94,29.85,8,0,8,0.00
2013-6-9,74.3,60.6,51.8,31.5,28.7,23.1,45,31,16,29.85,29.77,6,1,8,0.00
2013-6-10,76.3,60.1,50.2,31.6,27.4,20.3,43,30,15,29.80,29.62,5,0,6,0.00
2013-6-11,69.1,56.5,49.5,42.4,31.0,24.3,71,40,20,29.88,29.71,6,0,6,0.04
2013-6-12,69.6,55.7,48.7,44.0,37.1,25.5,75,53,22,29.91,29.85,4,0,6,0.31
2013-6-13,67.8,56.6,50.9,47.6,42.4,32.8,77,61,31,29.97,29.91,4,0,4,0.12
2013-6-14,69.8,57.5,50.7,47.8,36.6,27.0,77,49,23,30.00,29.80,4,0,5,0.00
2013-6-15,80.6,61.8,44.2,45.5,34.8,26.0,80,42,15,29.80,29.65,6,0,6,0.00
2013-6-16,78.1,61.7,50.5,49.9,38.8,31.1,69,47,20,29.85,29.77,5,0,6,0.00
2013-6-17,79.5,62.2,50.9,48.1,37.1,24.1,75,45,15,29.85,29.65,4,0,6,0.00
2013-6-18,76.1,62.6,55.9,49.0,36.5,22.5,73,43,15,29.74,29.62,6,0,7,0.08
2013-6-19,68.2,58.7,52.3,42.6,35.7,26.9,62,44,22,29.80,29.68,4,0,8,0.00
2013-6-20,58.6,55.6,52.9,47.0,42.3,33.4,75,61,44,29.88,29.74,4,0,6,0.31
2013-6-21,69.8,58.5,52.3,47.5,41.4,31.7,78,56,28,29.91,29.88,3,0,5,0.12
2013-6-22,81.3,63.5,47.5,50.3,36.5,27.0,83,43,14,29.88,29.59,6,0,6,0.00
2013-6-23,70.7,63.9,58.1,55.0,45.7,34.7,78,53,27,29.59,29.35,5,0,6,0.16
2013-6-24,67.3,60.7,56.1,54.8,47.9,37.5,81,64,36,29.47,29.35,4,0,4,0.35
2013-6-25,78.3,61.7,54.7,53.5,45.0,31.1,82,59,20,29.62,29.44,6,0,6,0.28
2013-6-26,73.8,62.4,56.1,53.4,48.3,33.7,80,62,25,29.83,29.62,4,0,8,0.43
2013-6-27,71.4,63.4,58.1,56.5,53.0,42.8,82,70,36,29.94,29.80,0,0,4,0.08
2013-6-28,90.1,72.5,60.6,59.5,48.2,31.2,88,51,15,29.94,29.80,4,0,7,0.00
2013-6-29,88.2,72.3,62.6,54.6,43.7,32.3,72,40,15,29.88,29.74,4,0,6,0.00
2013-6-30,95.7,75.2,58.3,55.5,42.5,31.1,78,37,11,29.77,29.59,8,0,8,0.00
2013-7-1,92.8,76.5,63.9,49.9,42.1,34.6,60,33,14,29.77,29.65,5,0,6,0.00
2013-7-2,86.0,71.2,62.2,48.8,36.7,27.0,60,32,13,29.83,29.77,5,0,6,0.00
2013-7-3,84.2,68.7,59.2,34.2,29.2,23.8,34,24,14,29.91,29.80,8,1,10,0.00
2013-7-4,73.8,62.5,56.3,37.4,32.4,27.2,49,33,21,29.88,29.80,5,0,8,0.00
2013-7-5,73.6,63.3,55.8,39.9,35.0,29.8,53,37,21,29.80,29.71,4,0,6,0.00
2013-7-6,82.9,65.3,52.2,44.4,36.5,26.6,65,38,15,29.74,29.62,5,0,6,0.00
2013-7-7,78.4,64.5,53.8,46.1,37.4,31.1,63,39,21,29.71,29.65,4,0,6,0.00
2013-7-8,82.8,66.1,57.4,44.0,36.8,30.6,59,37,17,29.85,29.71,5,0,6,0.00
2013-7-9,88.2,69.7,53.1,51.8,35.7,26.7,76,34,13,29.85,29.74,5,1,8,0.00
2013-7-10,77.0,63.2,53.1,40.1,34.2,28.2,53,35,18,29.83,29.71,4,0,5,0.00
2013-7-11,74.7,61.9,54.7,33.1,28.8,23.4,38,29,16,29.83,29.74,5,0,9,0.00
2013-7-12,70.7,59.2,51.6,34.7,29.4,24.4,51,33,22,29.85,29.77,5,0,8,0.00
2013-7-13,80.6,61.9,46.0,43.8,30.9,21.3,75,36,15,29.94,29.85,6,0,8,0.00
2013-7-14,87.1,66.2,47.3,40.9,29.4,19.8,64,29,11,29.91,29.74,6,0,7,0.00
2013-7-15,84.2,67.4,50.2,35.2,27.6,20.4,47,24,13,29.80,29.65,5,1,8,0.00
2013-7-16,90.7,69.0,52.7,43.6,33.4,22.5,48,29,12,29.65,29.53,6,0,8,0.00
2013-7-17,70.3,63.8,55.6,50.4,41.4,33.5,66,46,26,29.94,29.65,4,0,5,0.04
2013-7-18,82.2,65.6,53.2,45.2,38.3,30.6,66,41,17,29.97,29.85,5,0,6,0.00
2013-7-19,84.4,67.2,52.2,45.9,37.8,32.2,67,38,16,29.91,29.80,6,0,6,0.00
2013-7-20,81.5,64.7,55.6,45.3,39.3,32.2,63,42,19,29.85,29.71,5,0,6,0.00
2013-7-21,80.1,64.7,56.5,46.1,39.3,31.1,63,42,20,29.74,29.65,5,0,5,0.00
2013-7-22,82.4,65.3,57.4,46.8,40.5,31.8,65,44,19,29.83,29.71,5,0,6,0.00
2013-7-23,89.8,69.0,53.4,52.3,37.7,24.4,79,39,12,29.83,29.71,7,0,8,0.00
2013-7-24,89.6,69.8,53.1,47.0,32.8,22.3,67,30,12,29.83,29.74,5,0,6,0.00
2013-7-25,88.9,68.2,49.1,37.6,28.7,19.6,52,26,12,29.85,29.77,6,0,6,0.00
2013-7-26,89.4,67.8,48.2,37.1,27.4,15.8,54,25,12,29.91,29.83,5,0,6,0.00
2013-7-27,84.4,65.3,49.3,32.8,26.4,14.4,48,25,13,29.91,29.77,8,1,8,0.00
2013-7-28,75.7,59.8,48.4,38.8,32.6,26.8,63,38,18,29.80,29.71,5,0,6,0.00
2013-7-29,77.9,63.5,56.1,38.1,33.4,27.4,49,34,18,29.77,29.71,4,0,6,0.00
2013-7-30,82.4,65.1,51.1,43.2,34.8,24.6,66,37,14,29.88,29.77,6,0,6,0.00
2013-7-31,73.8,61.8,54.5,51.1,42.1,32.9,73,50,24,29.88,29.74,5,0,6,0.00
2013-8-1,64.6,60.5,56.5,52.8,42.0,36.2,76,51,36,29.85,29.80,4,0,4,0.00
2013-8-2,63.0,60.1,58.5,50.2,43.0,34.5,73,54,37,29.88,29.83,4,0,4,0.08
2013-8-3,71.4,63.9,58.5,53.2,45.7,35.4,77,54,28,29.88,29.80,4,0,6,0.00
2013-8-4,85.1,69.4,57.9,50.3,40.9,31.4,74,41,16,29.83,29.68,6,0,6,0.00
2013-8-5,89.2,70.7,55.8,54.1,36.7,24.7,79,34,13,29.77,29.68,5,0,6,0.00
2013-8-6,90.1,69.5,53.2,49.7,34.8,24.4,74,33,12,29.77,29.65,6,0,6,0.00
2013-8-7,89.2,68.9,52.2,46.8,34.0,24.4,67,32,13,29.77,29.68,5,0,6,0.00
2013-8-8,85.1,67.8,54.0,44.6,35.0,27.4,63,33,14,29.80,29.68,6,0,8,0.00
2013-8-9,87.1,68.5,54.1,44.0,34.8,27.0,59,33,13,29.71,29.59,7,0,7,0.00
2013-8-10,82.9,68.5,62.6,55.5,46.2,34.7,76,49,19,29.77,29.65,6,0,6,0.04
2013-8-11,81.3,67.2,58.6,48.6,37.6,29.9,59,36,17,29.83,29.74,0,0,0,0.00
2013-8-12,82.9,68.5,59.2,42.9,35.3,24.4,54,33,14,29.83,29.74,0,0,0,0.00
2013-8-13,86.2,67.8,54.1,44.6,34.1,24.1,63,33,13,29.85,29.68,0,0,0,0.00
2013-8-14,90.1,66.4,53.4,52.2,37.9,24.4,68,40,12,29.74,29.68,0,0,0,0.00
2013-8-15,69.6,65.4,61.3,58.3,54.0,46.3,78,67,44,29.77,29.68,0,0,0,0.24
2013-8-16,86.5,71.1,63.0,60.7,45.3,28.4,81,48,13,29.77,29.71,0,0,0,0.00
2013-8-17,82.6,68.3,59.2,44.1,37.1,28.2,52,34,17,29.83,29.77,0,0,0,0.00
2013-8-18,84.4,69.9,61.5,41.5,34.8,26.3,47,30,13,29.88,29.83,0,0,0,0.00
2013-8-19,82.6,68.1,59.0,41.0,33.1,26.4,48,29,14,29.88,29.80,0,0,0,0.00
2013-8-20,80.4,66.6,57.4,32.5,27.2,23.1,33,23,15,29.91,29.80,0,0,0,0.00
2013-8-21,85.3,66.3,48.7,38.0,30.0,24.4,57,29,13,29.85,29.68,0,0,0,0.00
2013-8-22,87.3,68.5,52.5,42.2,34.1,27.0,59,31,13,29.71,29.56,0,0,2,0.00
2013-8-23,73.6,65.2,59.4,40.2,35.8,29.6,47,35,22,29.68,29.59,6,0,6,0.00
2013-8-24,76.8,64.9,58.3,46.6,36.2,23.6,60,36,18,29.68,29.62,5,0,6,0.00
2013-8-25,73.0,61.4,52.9,46.3,37.5,30.4,63,43,22,29.71,29.62,4,0,6,0.00
2013-8-26,79.3,63.5,56.5,53.0,45.0,31.1,77,55,20,29.71,29.62,5,0,6,0.12
2013-8-27,82.0,67.5,59.4,53.7,42.4,32.2,74,45,19,29.74,29.56,5,0,6,0.00
2013-8-28,78.8,67.7,60.6,58.4,46.5,36.8,78,49,23,29.65,29.59,4,0,4,0.31
2013-8-29,73.6,65.8,63.1,60.0,55.4,43.0,81,70,36,29.80,29.62,0,0,4,1.26
2013-8-30,77.5,65.9,59.5,60.2,47.6,31.3,83,57,21,29.91,29.80,5,0,6,0.04
2013-8-31,82.0,64.7,52.0,52.3,40.4,30.5,80,46,17,29.83,29.59,5,0,7,0.00
2013-9-1,83.1,67.4,55.6,53.5,40.9,30.6,78,44,16,29.68,29.56,6,0,6,0.00
2013-9-2,84.9,67.5,55.6,46.3,38.2,26.6,64,39,13,29.71,29.62,5,0,6,0.00
2013-9-3,73.9,64.2,57.7,57.2,47.5,35.5,80,57,27,29.80,29.71,5,0,6,0.12
2013-9-4,72.7,63.0,56.3,56.3,44.8,38.0,81,54,31,29.80,29.77,8,0,8,0.00
2013-9-5,74.1,63.8,57.4,55.8,45.1,35.9,81,54,26,29.80,29.68,4,0,5,0.71
2013-9-6,72.1,63.6,60.1,56.3,50.7,39.5,80,65,31,29.88,29.71,3,0,5,1.22
2013-9-7,73.2,63.4,59.5,56.5,49.0,36.8,81,62,27,29.88,29.77,4,0,4,0.00
2013-9-8,78.4,64.5,55.2,53.4,44.8,34.1,80,54,21,29.85,29.80,5,0,6,0.00
2013-9-9,76.8,61.5,54.0,53.5,43.8,34.5,80,55,22,29.83,29.74,6,0,6,0.00
2013-9-10,78.6,65.9,57.2,54.2,44.8,35.9,80,51,22,29.77,29.62,6,0,9,0.00
2013-9-11,90.9,70.0,58.8,54.8,44.6,34.9,77,46,15,29.71,29.62,6,0,8,0.00
2013-9-12,81.3,66.8,57.6,52.4,43.8,34.1,71,47,20,29.77,29.65,6,0,6,0.00
2013-9-13,66.6,62.8,57.7,53.2,47.0,41.3,75,57,40,29.74,29.65,0,0,3,0.00
2013-9-14,69.1,63.8,58.8,53.3,47.2,40.0,72,56,35,29.65,29.50,3,0,4,0.00
2013-9-15,67.1,62.4,58.5,55.1,50.3,40.7,79,66,39,29.59,29.47,4,0,5,0.24
2013-9-16,66.0,61.0,55.9,55.6,51.2,40.0,81,71,43,29.71,29.59,4,0,5,0.16
2013-9-17,62.6,57.3,53.8,49.4,39.0,32.0,78,52,33,29.71,29.62,5,0,6,0.00
2013-9-18,67.1,58.1,49.1,44.9,37.6,28.0,66,48,24,29.83,29.71,0,0,0,0.00
2013-9-19,79.7,57.3,42.4,46.0,32.7,23.4,81,45,15,29.83,29.53,4,0,8,0.00
2013-9-20,75.2,58.6,46.6,48.1,34.5,23.8,74,45,16,29.53,29.35,5,0,8,0.04
2013-9-21,70.7,60.9,56.7,51.8,39.3,21.2,77,50,17,29.47,29.41,4,0,6,0.00
2013-9-22,61.3,56.4,53.2,49.5,43.5,35.9,76,62,40,29.53,29.35,5,0,7,0.63
2013-9-23,59.4,55.5,52.7,50.2,45.1,38.8,79,69,47,29.74,29.53,4,0,5,0.39
2013-9-24,61.9,54.9,50.2,47.4,34.0,26.2,74,46,27,29.68,29.62,3,0,4,0.04
2013-9-25,58.8,50.9,44.6,44.0,37.5,30.6,75,61,37,29.80,29.62,3,0,4,0.04
2013-9-26,63.9,49.8,40.5,43.6,30.8,23.6,75,51,24,29.88,29.80,5,0,6,0.00
2013-9-27,56.7,52.0,46.2,46.4,41.4,33.2,75,67,50,29.88,29.62,0,0,4,0.08
2013-9-28,60.1,55.1,51.1,54.4,46.9,36.6,84,74,49,29.62,29.15,8,0,8,2.32
2013-9-29,53.8,51.9,50.0,46.7,40.1,30.9,78,64,46,29.35,28.94,5,0,6,0.79
2013-9-30,56.1,50.5,47.3,45.8,37.7,27.7,76,62,39,29.71,29.23,5,0,8,1.14
2013-10-1,56.7,49.6,46.4,40.8,35.7,21.1,73,60,25,29.88,29.71,4,0,6,0.35
2013-10-2,54.9,50.4,48.6,42.5,36.4,23.6,73,60,31,29.94,29.83,0,0,0,0.35
2013-10-3,56.7,49.9,42.3,41.3,34.6,22.0,71,57,26,30.21,29.94,0,0,0,0.00
2013-10-4,61.3,46.5,36.0,41.2,29.3,23.5,76,53,24,30.24,30.12,0,0,0,0.00
2013-10-5,65.8,49.8,39.6,46.0,30.8,19.9,83,53,18,30.12,29.88,5,0,7,0.00
2013-10-6,73.0,52.0,39.2,54.2,30.1,15.8,93,50,14,29.88,29.65,5,0,5,0.00
2013-10-7,59.5,53.2,49.5,46.7,36.0,17.1,79,55,19,29.80,29.68,6,0,8,0.24
2013-10-8,54.3,49.8,42.1,36.0,30.4,25.4,60,47,36,29.85,29.74,5,0,8,0.12
2013-10-9,58.1,45.0,34.9,40.4,25.7,15.9,81,49,20,29.91,29.74,2,0,4,0.00
2013-10-10,59.4,50.0,42.3,39.2,30.2,15.9,68,49,19,29.83,29.71,4,0,4,0.12
2013-10-11,56.1,51.5,47.3,43.6,37.2,29.8,73,59,37,29.91,29.83,0,0,3,0.31
2013-10-12,56.7,50.1,44.2,41.2,34.7,25.6,71,57,31,29.97,29.83,3,0,6,0.31
2013-10-13,54.1,45.0,38.1,37.2,27.7,21.3,69,52,28,30.12,29.97,4,0,5,0.00
2013-10-14,56.5,43.5,34.7,33.5,25.1,19.8,68,49,26,30.18,30.12,4,0,6,0.00
2013-10-15,57.2,45.2,35.4,36.7,26.4,20.9,68,49,25,30.15,29.94,5,0,5,0.00
2013-10-16,54.5,47.7,43.3,40.5,29.9,23.1,78,52,30,29.97,29.91,6,0,10,0.00
2013-10-17,54.0,47.5,40.3,31.7,28.2,23.6,56,47,33,30.03,29.97,5,0,6,0.00
2013-10-18,57.7,45.3,38.7,32.7,27.0,21.7,66,50,25,30.00,29.91,4,0,6,0.00
2013-10-19,50.5,45.3,40.1,35.6,30.3,25.2,68,56,41,29.94,29.88,3,0,4,0.00
2013-10-20,49.5,46.6,44.2,33.5,29.2,23.8,62,51,38,29.94,29.88,4,0,4,0.00
2013-10-21,53.1,46.8,43.0,34.8,28.8,23.0,62,50,33,29.91,29.83,5,0,6,0.00
2013-10-22,54.7,47.0,43.0,34.2,29.9,25.1,68,52,34,29.88,29.80,5,0,6,0.00
2013-10-23,56.8,46.5,39.7,34.6,29.3,24.9,66,52,35,29.80,29.74,3,0,4,0.00
2013-10-24,52.7,47.1,41.9,36.6,31.9,27.4,67,56,41,29.88,29.80,0,0,0,0.00
2013-10-25,51.8,48.5,45.3,36.3,32.0,28.6,64,53,43,30.06,29.88,4,0,4,0.00
2013-10-26,50.7,47.6,44.1,35.6,28.0,24.1,65,47,36,30.09,29.94,6,0,8,0.00
2013-10-27,50.5,47.4,43.9,37.2,32.0,27.8,65,55,48,29.94,29.68,5,0,5,0.08
2013-10-28,53.2,44.2,36.5,39.2,25.2,10.3,79,50,21,29.71,29.65,4,0,5,0.00
2013-10-29,54.0,39.2,31.1,33.9,14.8,8.3,75,39,18,29.80,29.71,4,0,4,0.00
2013-10-30,56.3,44.0,32.9,30.6,20.0,13.0,53,40,20,29.88,29.80,4,0,5,0.00
2013-10-31,53.4,50.0,47.1,40.4,35.9,28.8,65,58,48,30.03,29.85,0,0,0,0.08
2013-11-1,59.9,53.0,49.8,42.9,35.8,25.4,67,54,27,30.03,29.59,0,0,0,0.00
2013-11-2,51.6,48.9,43.7,43.1,26.6,12.4,73,44,24,29.65,29.29,11,2,12,0.55
2013-11-3,51.4,43.8,37.2,25.8,20.0,9.2,49,40,19,29.85,29.65,8,0,8,0.00
2013-11-4,48.9,40.7,33.6,23.3,17.5,8.0,52,40,19,29.94,29.80,4,0,4,0.04
2013-11-5,52.5,47.3,42.4,40.2,30.6,23.1,65,52,40,30.00,29.77,4,0,6,0.16
2013-11-6,52.2,47.1,42.4,32.5,28.3,24.2,57,48,34,30.06,29.80,4,0,6,0.08
2013-11-7,48.9,48.2,47.1,37.3,34.1,25.8,65,58,41,29.80,29.47,7,0,8,1.46
2013-11-8,51.6,47.8,44.8,35.4,30.3,20.9,63,51,36,29.91,29.77,4,0,6,0.00
2013-11-9,50.0,44.2,37.6,33.6,26.4,21.1,62,50,37,29.91,29.83,3,0,4,0.08
2013-11-10,50.0,47.0,45.0,34.4,30.3,24.5,65,53,37,29.88,29.83,6,0,8,0.00
2013-11-11,54.1,46.8,43.0,35.6,30.1,25.5,71,53,33,29.91,29.74,4,0,5,0.00
2013-11-12,57.0,51.1,44.2,45.7,40.0,35.1,77,66,50,30.12,29.80,4,0,5,0.16
2013-11-13,56.1,50.4,46.2,42.7,32.5,20.8,70,52,26,30.18,30.06,5,0,5,0.00
2013-11-14,50.4,46.4,42.8,31.7,28.1,25.5,53,49,41,30.06,29.83,0,0,0,0.28
2013-11-15,46.8,44.0,42.1,36.4,27.4,24.6,68,52,44,29.83,29.09,8,0,10,0.39
2013-11-16,45.9,43.0,41.0,27.6,22.9,16.9,53,45,32,29.53,29.12,4,0,8,0.08
2013-11-17,49.8,46.0,41.9,34.3,28.3,20.5,60,50,42,29.68,29.53,8,0,8,0.35
2013-11-18,52.3,49.4,47.3,39.8,36.1,32.8,66,60,50,29.68,29.32,4,0,4,0.98
2013-11-19,52.2,43.3,34.2,44.8,26.5,12.4,76,52,40,29.80,29.32,6,0,8,0.16
2013-11-20,37.2,32.4,28.4,16.4,11.9,8.4,49,42,31,30.24,29.80,5,0,9,0.00
2013-11-21,35.4,30.0,25.9,14.2,9.6,6.5,48,42,31,30.39,30.24,5,0,6,0.00
2013-11-22,37.8,31.1,27.0,13.0,9.4,6.4,50,40,29,30.39,30.21,5,1,8,0.00
2013-11-23,42.3,32.4,26.4,15.7,10.6,7.3,49,40,28,30.21,29.94,4,0,5,0.08
2013-11-24,42.3,33.1,27.5,19.0,12.6,8.3,53,42,28,30.00,29.91,4,0,4,0.00
2013-11-25,46.6,35.7,29.7,26.7,16.4,11.4,60,45,29,30.06,30.00,0,0,0,0.00
2013-11-26,44.1,37.0,29.1,26.5,17.8,9.9,53,46,32,30.03,29.85,0,0,0,0.00
2013-11-27,50.0,41.0,33.8,26.9,20.6,15.2,58,45,27,29.85,29.71,3,0,5,0.00
2013-11-28,46.0,36.3,31.1,30.2,16.5,12.8,68,45,28,29.94,29.80,4,0,4,0.00
2013-11-29,47.1,42.2,32.9,33.4,26.6,14.4,60,54,46,30.06,29.94,4,0,4,0.04
2013-11-30,49.1,46.3,42.4,36.4,32.6,28.7,63,59,49,30.09,29.85,0,0,4,0.24
2013-12-1,52.2,49.6,43.7,45.3,31.4,13.4,78,51,29,29.85,29.53,8,1,12,0.16
2013-12-2,44.1,38.9,35.6,17.4,12.8,6.2,46,34,23,29.80,29.56,5,0,10,0.08
2013-12-3,36.1,32.0,26.2,18.4,10.5,5.5,49,40,31,30.06,29.80,4,0,7,0.04
2013-12-4,32.5,25.6,21.0,9.4,3.5,0.0,44,38,30,30.09,30.03,0,0,0,0.00
2013-12-5,32.2,24.7,19.0,7.1,0.8,-3.5,41,35,28,30.06,29.94,0,0,0,0.00
2013-12-6,29.3,24.0,15.8,-1.1,-9.4,-13.7,31,22,20,29.97,29.85,8,1,10,0.00
2013-12-7,25.9,16.7,10.8,-6.1,-12.2,-17.8,35,26,21,30.18,29.97,4,0,5,0.00
2013-12-8,28.8,19.9,11.1,-2.9,-9.3,-18.6,34,27,20,30.33,30.18,6,0,6,0.00
2013-12-9,32.4,25.0,14.5,6.3,-3.0,-8.7,37,29,23,30.33,30.21,0,0,0,0.00
2013-12-10,37.4,32.5,29.1,13.5,10.5,6.3,43,40,32,30.24,30.15,0,0,0,0.00
2013-12-11,36.1,29.5,24.3,13.6,9.2,4.5,43,42,37,30.18,29.91,4,0,6,0.00
2013-12-12,37.4,32.5,26.6,24.2,14.8,7.3,59,48,42,29.91,29.80,5,0,5,0.28
2013-12-13,45.5,40.9,37.4,34.0,27.4,22.9,64,58,53,30.18,29.88,0,0,0,0.20
2013-12-14,44.1,41.3,38.1,32.6,28.2,24.2,66,59,51,30.18,30.09,4,0,6,0.00
2013-12-15,50.4,46.3,42.8,40.2,34.5,31.3,70,63,52,30.21,30.09,3,0,4,0.20
2013-12-16,45.3,42.3,37.4,33.5,27.0,20.0,63,55,45,30.24,30.00,4,0,4,0.00
2013-12-17,44.1,39.7,34.5,30.5,22.3,16.9,59,49,40,30.03,29.85,3,0,3,0.04
2013-12-18,44.1,39.9,32.4,31.7,24.5,15.8,62,54,45,29.91,29.77,3,0,5,0.35
2013-12-19,34.3,31.4,28.4,17.1,13.5,9.8,51,47,44,30.09,29.88,0,0,0,0.00
2013-12-20,36.1,32.7,28.2,25.5,16.7,9.9,65,52,45,29.94,29.47,3,0,4,0.35
2013-12-21,44.6,41.3,36.1,37.3,33.5,25.5,80,74,65,29.91,29.59,3,0,4,0.75
2013-12-22,49.3,47.0,44.4,39.9,37.2,35.1,71,68,65,30.06,29.91,4,0,4,0.67
2013-12-23,51.4,47.4,42.8,41.2,32.3,17.3,74,57,28,30.27,29.91,6,0,8,0.35
2013-12-24,45.1,38.7,30.7,27.0,19.5,11.8,51,46,28,30.36,30.27,3,0,4,0.00
2013-12-25,39.6,34.0,30.4,20.4,15.8,11.8,49,47,43,30.27,30.15,3,0,4,0.00
2013-12-26,42.1,34.7,31.6,30.9,18.3,14.1,67,51,47,30.15,29.94,0,0,0,0.00
2013-12-27,42.4,37.2,31.5,33.0,23.7,12.6,69,58,45,30.12,29.88,5,0,5,0.20
2013-12-28,46.0,40.9,33.6,34.0,26.8,16.4,67,57,48,30.27,30.12,0,0,3,0.00
2013-12-29,42.6,37.2,33.3,23.0,19.5,15.7,52,49,40,30.24,30.06,0,0,0,0.00
2013-12-30,43.3,40.0,35.6,32.4,25.7,19.3,65,56,50,30.06,29.88,4,0,4,0.04
2013-12-31,47.5,43.0,37.6,34.7,29.8,22.0,64,59,52,30.12,29.94,0,0,0,0.08
2014-1-1,42.4,38.8,34.3,27.2,23.5,19.6,58,54,46,30.15,30.00,0,0,4,0.00
2014-1-2,46.6,43.9,40.5,35.9,31.5,26.4,67,62,57,30.00,29.68,2,0,6,1.30